sensor_id;sensor_type;location;lat;lon;timestamp;temperature;humidity
6054;DHT22;3055;50.886;14.814;2022-09-16T00:01:09;12.60;99.90
6054;DHT22;3055;50.886;14.814;2022-09-16T00:03:36;12.50;99.90
6054;DHT22;3055;50.886;14.814;2022-09-16T00:06:03;12.40;99.90
6054;DHT22;3055;50.886;14.814;2022-09-16T00:08:31;12.20;99.90
6054;DHT22;3055;50.886;14.814;2022-09-16T00:10:59;12.20;99.90
6054;DHT22;3055;50.886;14.814;2022-09-16T00:13:26;12.20;99.90
6054;DHT22;3055;50.886;14.814;2022-09-16T00:15:53;12.10;99.90
6054;DHT22;3055;50.886;14.814;2022-09-16T00:18:20;12.10;99.90
6054;DHT22;3055;50.886;14.814;2022-09-16T00:20:49;12.10;99.90
6054;DHT22;3055;50.886;14.814;2022-09-16T00:23:17;12.10;99.90
6054;DHT22;3055;50.886;14.814;2022-09-16T00:25:49;12.20;99.90
6054;DHT22;3055;50.886;14.814;2022-09-16T00:28:17;12.20;99.90
6054;DHT22;3055;50.886;14.814;2022-09-16T00:30:46;12.20;99.90
6054;DHT22;3055;50.886;14.814;2022-09-16T00:33:13;12.30;99.90
6054;DHT22;3055;50.886;14.814;2022-09-16T00:35:40;12.40;99.90
6054;DHT22;3055;50.886;14.814;2022-09-16T00:38:07;12.30;99.90
6054;DHT22;3055;50.886;14.814;2022-09-16T00:40:42;12.40;99.90
6054;DHT22;3055;50.886;14.814;2022-09-16T00:43:12;12.30;99.90
6054;DHT22;3055;50.886;14.814;2022-09-16T00:45:40;12.40;99.90
6054;DHT22;3055;50.886;14.814;2022-09-16T00:48:15;12.40;99.90
6054;DHT22;3055;50.886;14.814;2022-09-16T00:50:45;12.40;99.90
6054;DHT22;3055;50.886;14.814;2022-09-16T00:53:19;12.50;99.90
6054;DHT22;3055;50.886;14.814;2022-09-16T00:55:47;12.60;99.90
6054;DHT22;3055;50.886;14.814;2022-09-16T00:58:20;12.60;99.90
6054;DHT22;3055;50.886;14.814;2022-09-16T01:00:49;12.60;99.90
6054;DHT22;3055;50.886;14.814;2022-09-16T01:03:16;12.50;99.90
6054;DHT22;3055;50.886;14.814;2022-09-16T01:05:45;12.50;99.90
6054;DHT22;3055;50.886;14.814;2022-09-16T01:08:12;12.30;99.90
6054;DHT22;3055;50.886;14.814;2022-09-16T01:10:40;12.30;99.90
6054;DHT22;3055;50.886;14.814;2022-09-16T01:13:10;12.30;99.90
6054;DHT22;3055;50.886;14.814;2022-09-16T01:15:44;12.20;99.90
6054;DHT22;3055;50.886;14.814;2022-09-16T01:18:18;12.20;99.90
6054;DHT22;3055;50.886;14.814;2022-09-16T01:21:16;12.10;99.90
6054;DHT22;3055;50.886;14.814;2022-09-16T01:27:27;12.00;99.90
6054;DHT22;3055;50.886;14.814;2022-09-16T01:33:03;12.00;99.90
6054;DHT22;3055;50.886;14.814;2022-09-16T01:35:52;12.00;99.90
6054;DHT22;3055;50.886;14.814;2022-09-16T01:38:27;11.90;99.90
6054;DHT22;3055;50.886;14.814;2022-09-16T01:41:07;11.90;99.90
6054;DHT22;3055;50.886;14.814;2022-09-16T01:43:43;12.00;99.90
6054;DHT22;3055;50.886;14.814;2022-09-16T01:46:19;12.00;99.90
6054;DHT22;3055;50.886;14.814;2022-09-16T01:48:53;12.10;99.90
6054;DHT22;3055;50.886;14.814;2022-09-16T01:51:24;12.20;99.90
6054;DHT22;3055;50.886;14.814;2022-09-16T01:54:01;12.20;99.90
6054;DHT22;3055;50.886;14.814;2022-09-16T01:56:32;12.30;99.90
6054;DHT22;3055;50.886;14.814;2022-09-16T01:59:06;12.30;99.90
6054;DHT22;3055;50.886;14.814;2022-09-16T02:01:36;12.30;99.90
6054;DHT22;3055;50.886;14.814;2022-09-16T02:04:10;12.30;99.90
6054;DHT22;3055;50.886;14.814;2022-09-16T02:06:39;12.30;99.90
6054;DHT22;3055;50.886;14.814;2022-09-16T02:09:14;12.30;99.90
6054;DHT22;3055;50.886;14.814;2022-09-16T02:11:43;12.30;99.90
6054;DHT22;3055;50.886;14.814;2022-09-16T02:14:15;12.30;99.90
6054;DHT22;3055;50.886;14.814;2022-09-16T02:16:47;12.30;99.90
6054;DHT22;3055;50.886;14.814;2022-09-16T02:19:19;12.20;99.90
6054;DHT22;3055;50.886;14.814;2022-09-16T02:21:50;12.10;99.90
6054;DHT22;3055;50.886;14.814;2022-09-16T02:24:19;12.10;99.90
6054;DHT22;3055;50.886;14.814;2022-09-16T02:26:51;12.10;99.90
6054;DHT22;3055;50.886;14.814;2022-09-16T02:29:23;12.10;99.90
6054;DHT22;3055;50.886;14.814;2022-09-16T02:31:56;12.10;99.90
6054;DHT22;3055;50.886;14.814;2022-09-16T02:34:29;12.10;99.90
6054;DHT22;3055;50.886;14.814;2022-09-16T02:37:03;12.10;99.90
6054;DHT22;3055;50.886;14.814;2022-09-16T02:39:33;12.10;99.90
6054;DHT22;3055;50.886;14.814;2022-09-16T02:42:02;12.10;99.90
6054;DHT22;3055;50.886;14.814;2022-09-16T02:44:30;12.10;99.90
6054;DHT22;3055;50.886;14.814;2022-09-16T02:47:02;12.10;99.90
6054;DHT22;3055;50.886;14.814;2022-09-16T02:49:37;12.20;99.90
6054;DHT22;3055;50.886;14.814;2022-09-16T02:52:13;12.20;99.90
6054;DHT22;3055;50.886;14.814;2022-09-16T02:54:46;12.20;99.90
6054;DHT22;3055;50.886;14.814;2022-09-16T02:57:15;12.10;99.90
6054;DHT22;3055;50.886;14.814;2022-09-16T02:59:43;12.10;99.90
6054;DHT22;3055;50.886;14.814;2022-09-16T03:02:10;12.20;99.90
6054;DHT22;3055;50.886;14.814;2022-09-16T03:04:38;12.30;99.90
6054;DHT22;3055;50.886;14.814;2022-09-16T03:07:08;12.50;92.40
6054;DHT22;3055;50.886;14.814;2022-09-16T03:09:37;12.60;65.60
6054;DHT22;3055;50.886;14.814;2022-09-16T03:12:21;12.60;64.60
6054;DHT22;3055;50.886;14.814;2022-09-16T03:15:02;12.70;31.50
6054;DHT22;3055;50.886;14.814;2022-09-16T03:17:51;12.70;22.70
6054;DHT22;3055;50.886;14.814;2022-09-16T03:20:30;12.80;19.80
6054;DHT22;3055;50.886;14.814;2022-09-16T03:23:09;12.80;1.00
6054;DHT22;3055;50.886;14.814;2022-09-16T03:25:44;12.80;1.00
6054;DHT22;3055;50.886;14.814;2022-09-16T03:28:18;12.90;7.10
6054;DHT22;3055;50.886;14.814;2022-09-16T03:30:54;12.90;1.00
6054;DHT22;3055;50.886;14.814;2022-09-16T03:33:27;12.80;8.30
6054;DHT22;3055;50.886;14.814;2022-09-16T03:35:59;12.80;1.00
6054;DHT22;3055;50.886;14.814;2022-09-16T03:38:28;12.70;1.00
6054;DHT22;3055;50.886;14.814;2022-09-16T03:40:55;12.70;5.10
6054;DHT22;3055;50.886;14.814;2022-09-16T03:43:23;12.60;10.50
6054;DHT22;3055;50.886;14.814;2022-09-16T03:45:50;12.60;20.40
6054;DHT22;3055;50.886;14.814;2022-09-16T03:48:17;12.50;24.60
6054;DHT22;3055;50.886;14.814;2022-09-16T03:50:44;12.40;28.70
6054;DHT22;3055;50.886;14.814;2022-09-16T03:53:12;12.40;44.80
6054;DHT22;3055;50.886;14.814;2022-09-16T03:55:39;12.40;47.70
6054;DHT22;3055;50.886;14.814;2022-09-16T03:58:06;12.30;40.40
6054;DHT22;3055;50.886;14.814;2022-09-16T04:00:33;12.20;77.80
6054;DHT22;3055;50.886;14.814;2022-09-16T04:03:00;12.10;92.60
6054;DHT22;3055;50.886;14.814;2022-09-16T04:05:27;12.10;92.50
6054;DHT22;3055;50.886;14.814;2022-09-16T04:07:54;12.10;87.50
6054;DHT22;3055;50.886;14.814;2022-09-16T04:10:22;12.00;96.00
6054;DHT22;3055;50.886;14.814;2022-09-16T04:12:49;11.90;99.90
6054;DHT22;3055;50.886;14.814;2022-09-16T04:15:16;11.90;99.90
6054;DHT22;3055;50.886;14.814;2022-09-16T04:17:43;11.80;99.70
6054;DHT22;3055;50.886;14.814;2022-09-16T04:20:10;11.90;94.00
6054;DHT22;3055;50.886;14.814;2022-09-16T04:22:37;11.90;92.50
6054;DHT22;3055;50.886;14.814;2022-09-16T04:25:04;11.90;74.70
6054;DHT22;3055;50.886;14.814;2022-09-16T04:27:32;11.70;97.30
6054;DHT22;3055;50.886;14.814;2022-09-16T04:29:59;11.70;99.90
6054;DHT22;3055;50.886;14.814;2022-09-16T04:32:26;11.60;99.90
6054;DHT22;3055;50.886;14.814;2022-09-16T04:34:53;11.50;99.90
6054;DHT22;3055;50.886;14.814;2022-09-16T04:37:20;11.40;99.90
6054;DHT22;3055;50.886;14.814;2022-09-16T04:39:47;11.40;99.90
6054;DHT22;3055;50.886;14.814;2022-09-16T04:42:14;11.40;99.90
6054;DHT22;3055;50.886;14.814;2022-09-16T04:44:42;11.40;99.90
6054;DHT22;3055;50.886;14.814;2022-09-16T04:47:09;11.40;99.90
6054;DHT22;3055;50.886;14.814;2022-09-16T04:49:36;11.40;99.90
6054;DHT22;3055;50.886;14.814;2022-09-16T04:52:03;11.40;99.90
6054;DHT22;3055;50.886;14.814;2022-09-16T04:54:30;11.50;99.90
6054;DHT22;3055;50.886;14.814;2022-09-16T04:56:57;11.50;99.90
6054;DHT22;3055;50.886;14.814;2022-09-16T04:59:26;11.60;99.90
6054;DHT22;3055;50.886;14.814;2022-09-16T05:01:54;11.60;99.90
6054;DHT22;3055;50.886;14.814;2022-09-16T05:04:21;11.70;99.90
6054;DHT22;3055;50.886;14.814;2022-09-16T05:06:48;11.70;99.90
6054;DHT22;3055;50.886;14.814;2022-09-16T05:09:15;11.70;99.90
6054;DHT22;3055;50.886;14.814;2022-09-16T05:11:42;11.70;99.90
6054;DHT22;3055;50.886;14.814;2022-09-16T05:14:13;11.70;99.90
6054;DHT22;3055;50.886;14.814;2022-09-16T05:16:40;11.70;99.90
6054;DHT22;3055;50.886;14.814;2022-09-16T05:19:10;11.80;99.90
6054;DHT22;3055;50.886;14.814;2022-09-16T05:21:38;11.90;99.90
6054;DHT22;3055;50.886;14.814;2022-09-16T05:24:06;12.10;99.90
6054;DHT22;3055;50.886;14.814;2022-09-16T05:26:35;12.30;94.80
6054;DHT22;3055;50.886;14.814;2022-09-16T05:29:05;12.40;92.00
6054;DHT22;3055;50.886;14.814;2022-09-16T05:31:35;12.60;49.70
6054;DHT22;3055;50.886;14.814;2022-09-16T05:34:05;12.60;35.30
6054;DHT22;3055;50.886;14.814;2022-09-16T05:36:34;12.70;59.50
6054;DHT22;3055;50.886;14.814;2022-09-16T05:39:04;12.80;26.70
6054;DHT22;3055;50.886;14.814;2022-09-16T05:41:31;12.80;10.40
6054;DHT22;3055;50.886;14.814;2022-09-16T05:43:59;12.80;32.80
6054;DHT22;3055;50.886;14.814;2022-09-16T05:46:27;12.80;21.60
6054;DHT22;3055;50.886;14.814;2022-09-16T05:48:54;12.80;18.70
6054;DHT22;3055;50.886;14.814;2022-09-16T05:51:23;12.80;17.40
6054;DHT22;3055;50.886;14.814;2022-09-16T05:53:53;12.80;36.20
6054;DHT22;3055;50.886;14.814;2022-09-16T05:56:21;12.90;40.10
6054;DHT22;3055;50.886;14.814;2022-09-16T05:58:50;12.90;18.10
6054;DHT22;3055;50.886;14.814;2022-09-16T06:01:20;13.00;18.00
6054;DHT22;3055;50.886;14.814;2022-09-16T06:03:48;13.10;1.00
6054;DHT22;3055;50.886;14.814;2022-09-16T06:06:20;13.10;1.00
6054;DHT22;3055;50.886;14.814;2022-09-16T06:08:48;13.20;1.00
6054;DHT22;3055;50.886;14.814;2022-09-16T06:11:17;13.30;1.00
6054;DHT22;3055;50.886;14.814;2022-09-16T06:13:44;13.30;1.00
6054;DHT22;3055;50.886;14.814;2022-09-16T06:16:11;13.40;1.00
6054;DHT22;3055;50.886;14.814;2022-09-16T06:18:39;13.50;1.00
6054;DHT22;3055;50.886;14.814;2022-09-16T06:21:07;13.60;1.00
6054;DHT22;3055;50.886;14.814;2022-09-16T06:23:35;13.70;1.00
6054;DHT22;3055;50.886;14.814;2022-09-16T06:26:04;13.80;1.00
6054;DHT22;3055;50.886;14.814;2022-09-16T06:28:32;13.90;1.00
6054;DHT22;3055;50.886;14.814;2022-09-16T06:31:01;13.90;1.00
6054;DHT22;3055;50.886;14.814;2022-09-16T06:33:29;13.90;1.00
6054;DHT22;3055;50.886;14.814;2022-09-16T06:35:55;13.90;1.00
6054;DHT22;3055;50.886;14.814;2022-09-16T06:38:23;14.00;1.00
6054;DHT22;3055;50.886;14.814;2022-09-16T06:40:50;14.00;1.00
6054;DHT22;3055;50.886;14.814;2022-09-16T06:43:16;14.10;1.00
6054;DHT22;3055;50.886;14.814;2022-09-16T06:45:45;14.10;1.00
6054;DHT22;3055;50.886;14.814;2022-09-16T06:48:12;14.10;1.00
6054;DHT22;3055;50.886;14.814;2022-09-16T06:50:39;14.10;1.00
6054;DHT22;3055;50.886;14.814;2022-09-16T06:53:05;14.20;99.90
6054;DHT22;3055;50.886;14.814;2022-09-16T06:55:32;14.40;1.00
6054;DHT22;3055;50.886;14.814;2022-09-16T06:58:00;14.50;99.90
6054;DHT22;3055;50.886;14.814;2022-09-16T07:00:27;14.70;99.90
6054;DHT22;3055;50.886;14.814;2022-09-16T07:02:56;14.80;99.90
6054;DHT22;3055;50.886;14.814;2022-09-16T07:05:22;14.90;1.00
6054;DHT22;3055;50.886;14.814;2022-09-16T07:07:49;15.00;99.90
6054;DHT22;3055;50.886;14.814;2022-09-16T07:10:17;15.20;1.00
6054;DHT22;3055;50.886;14.814;2022-09-16T07:12:44;15.30;99.90
6054;DHT22;3055;50.886;14.814;2022-09-16T07:15:11;15.30;1.00
6054;DHT22;3055;50.886;14.814;2022-09-16T07:17:38;15.20;99.90
6054;DHT22;3055;50.886;14.814;2022-09-16T07:20:07;15.20;1.00
6054;DHT22;3055;50.886;14.814;2022-09-16T07:22:34;15.30;99.90
6054;DHT22;3055;50.886;14.814;2022-09-16T07:25:01;15.40;99.90
6054;DHT22;3055;50.886;14.814;2022-09-16T07:27:29;15.50;1.00
6054;DHT22;3055;50.886;14.814;2022-09-16T07:29:56;15.40;1.00
6054;DHT22;3055;50.886;14.814;2022-09-16T07:32:23;15.30;1.00
6054;DHT22;3055;50.886;14.814;2022-09-16T07:34:50;15.00;1.00
6054;DHT22;3055;50.886;14.814;2022-09-16T07:37:19;14.90;1.00
6054;DHT22;3055;50.886;14.814;2022-09-16T07:39:46;14.90;1.00
6054;DHT22;3055;50.886;14.814;2022-09-16T07:42:14;14.90;1.00
6054;DHT22;3055;50.886;14.814;2022-09-16T07:44:41;15.10;1.00
6054;DHT22;3055;50.886;14.814;2022-09-16T07:47:08;15.40;1.00
6054;DHT22;3055;50.886;14.814;2022-09-16T07:49:35;15.60;1.00
6054;DHT22;3055;50.886;14.814;2022-09-16T07:52:02;15.60;99.90
6054;DHT22;3055;50.886;14.814;2022-09-16T07:54:30;15.60;99.90
6054;DHT22;3055;50.886;14.814;2022-09-16T07:56:57;15.60;99.90
6054;DHT22;3055;50.886;14.814;2022-09-16T07:59:24;15.70;99.90
6054;DHT22;3055;50.886;14.814;2022-09-16T08:01:51;15.70;99.90
6054;DHT22;3055;50.886;14.814;2022-09-16T08:04:19;15.70;99.90
6054;DHT22;3055;50.886;14.814;2022-09-16T08:06:46;15.60;99.90
6054;DHT22;3055;50.886;14.814;2022-09-16T08:09:13;15.40;99.90
6054;DHT22;3055;50.886;14.814;2022-09-16T08:11:42;15.20;99.90
6054;DHT22;3055;50.886;14.814;2022-09-16T08:14:09;15.10;99.90
6054;DHT22;3055;50.886;14.814;2022-09-16T08:16:36;15.00;99.90
6054;DHT22;3055;50.886;14.814;2022-09-16T08:19:03;15.00;99.90
6054;DHT22;3055;50.886;14.814;2022-09-16T08:21:30;15.20;99.90
6054;DHT22;3055;50.886;14.814;2022-09-16T08:23:57;15.30;99.90
6054;DHT22;3055;50.886;14.814;2022-09-16T08:26:24;15.60;99.90
6054;DHT22;3055;50.886;14.814;2022-09-16T08:28:53;16.10;99.90
6054;DHT22;3055;50.886;14.814;2022-09-16T08:31:20;16.20;99.90
6054;DHT22;3055;50.886;14.814;2022-09-16T08:33:47;16.50;99.90
6054;DHT22;3055;50.886;14.814;2022-09-16T08:36:17;16.60;99.90
6054;DHT22;3055;50.886;14.814;2022-09-16T08:38:45;16.50;99.90
6054;DHT22;3055;50.886;14.814;2022-09-16T08:44:22;16.50;99.90
6054;DHT22;3055;50.886;14.814;2022-09-16T08:46:56;16.50;99.90
6054;DHT22;3055;50.886;14.814;2022-09-16T08:49:31;16.50;99.90
6054;DHT22;3055;50.886;14.814;2022-09-16T08:52:01;16.40;99.90
6054;DHT22;3055;50.886;14.814;2022-09-16T08:54:33;16.40;99.90
6054;DHT22;3055;50.886;14.814;2022-09-16T08:57:04;16.30;99.90
6054;DHT22;3055;50.886;14.814;2022-09-16T08:59:38;16.20;99.90
6054;DHT22;3055;50.886;14.814;2022-09-16T09:02:34;16.30;99.90
6054;DHT22;3055;50.886;14.814;2022-09-16T09:05:09;16.20;99.90
6054;DHT22;3055;50.886;14.814;2022-09-16T09:07:52;16.20;99.90
6054;DHT22;3055;50.886;14.814;2022-09-16T09:10:24;16.20;99.90
6054;DHT22;3055;50.886;14.814;2022-09-16T09:13:00;16.20;99.90
6054;DHT22;3055;50.886;14.814;2022-09-16T09:15:38;16.10;99.90
6054;DHT22;3055;50.886;14.814;2022-09-16T09:18:22;16.20;99.90
6054;DHT22;3055;50.886;14.814;2022-09-16T09:20:56;16.30;99.90
6054;DHT22;3055;50.886;14.814;2022-09-16T09:23:43;16.30;99.90
6054;DHT22;3055;50.886;14.814;2022-09-16T09:26:19;16.30;99.90
6054;DHT22;3055;50.886;14.814;2022-09-16T09:29:04;16.50;99.90
6054;DHT22;3055;50.886;14.814;2022-09-16T09:31:44;16.80;99.90
6054;DHT22;3055;50.886;14.814;2022-09-16T09:34:29;17.00;99.90
6054;DHT22;3055;50.886;14.814;2022-09-16T09:37:07;16.90;99.90
6054;DHT22;3055;50.886;14.814;2022-09-16T09:39:51;16.80;99.90
6054;DHT22;3055;50.886;14.814;2022-09-16T09:42:24;16.90;99.90
6054;DHT22;3055;50.886;14.814;2022-09-16T09:44:58;16.90;99.90
6054;DHT22;3055;50.886;14.814;2022-09-16T09:47:32;16.90;99.90
6054;DHT22;3055;50.886;14.814;2022-09-16T09:50:10;16.90;99.90
6054;DHT22;3055;50.886;14.814;2022-09-16T09:52:44;16.90;99.90
6054;DHT22;3055;50.886;14.814;2022-09-16T09:55:15;17.10;99.90
6054;DHT22;3055;50.886;14.814;2022-09-16T09:57:54;17.20;98.20
6054;DHT22;3055;50.886;14.814;2022-09-16T10:00:23;17.30;99.90
6054;DHT22;3055;50.886;14.814;2022-09-16T10:02:51;17.40;99.90
6054;DHT22;3055;50.886;14.814;2022-09-16T10:05:21;17.40;96.10
6054;DHT22;3055;50.886;14.814;2022-09-16T10:07:50;17.60;79.30
6054;DHT22;3055;50.886;14.814;2022-09-16T10:10:21;17.80;90.20
6054;DHT22;3055;50.886;14.814;2022-09-16T10:12:49;18.00;60.20
6054;DHT22;3055;50.886;14.814;2022-09-16T10:15:21;18.10;35.80
6054;DHT22;3055;50.886;14.814;2022-09-16T10:17:51;18.30;26.40
6054;DHT22;3055;50.886;14.814;2022-09-16T10:20:25;18.20;14.50
6054;DHT22;3055;50.886;14.814;2022-09-16T10:23:00;18.10;7.60
6054;DHT22;3055;50.886;14.814;2022-09-16T10:25:30;18.20;1.00
6054;DHT22;3055;50.886;14.814;2022-09-16T10:27:58;18.60;1.00
6054;DHT22;3055;50.886;14.814;2022-09-16T10:30:27;19.10;1.00
6054;DHT22;3055;50.886;14.814;2022-09-16T10:33:00;19.40;1.00
6054;DHT22;3055;50.886;14.814;2022-09-16T10:35:29;19.30;1.00
6054;DHT22;3055;50.886;14.814;2022-09-16T10:38:00;19.10;1.00
6054;DHT22;3055;50.886;14.814;2022-09-16T10:40:28;18.80;1.00
6054;DHT22;3055;50.886;14.814;2022-09-16T10:43:00;18.80;1.00
6054;DHT22;3055;50.886;14.814;2022-09-16T10:45:30;18.70;1.00
6054;DHT22;3055;50.886;14.814;2022-09-16T10:48:03;18.80;1.00
6054;DHT22;3055;50.886;14.814;2022-09-16T10:50:32;19.20;1.00
6054;DHT22;3055;50.886;14.814;2022-09-16T10:52:59;19.60;1.00
6054;DHT22;3055;50.886;14.814;2022-09-16T10:55:27;19.70;1.00
6054;DHT22;3055;50.886;14.814;2022-09-16T10:58:06;19.80;1.00
6054;DHT22;3055;50.886;14.814;2022-09-16T11:00:40;19.70;1.00
6054;DHT22;3055;50.886;14.814;2022-09-16T11:03:39;19.30;1.00
6054;DHT22;3055;50.886;14.814;2022-09-16T11:06:23;18.60;1.00
6054;DHT22;3055;50.886;14.814;2022-09-16T11:09:00;17.90;1.00
6054;DHT22;3055;50.886;14.814;2022-09-16T11:11:50;17.00;1.00
6054;DHT22;3055;50.886;14.814;2022-09-16T11:14:28;16.20;37.80
6054;DHT22;3055;50.886;14.814;2022-09-16T11:17:28;16.10;99.90
6054;DHT22;3055;50.886;14.814;2022-09-16T11:20:22;16.30;99.90
6054;DHT22;3055;50.886;14.814;2022-09-16T11:22:58;16.50;99.90
6054;DHT22;3055;50.886;14.814;2022-09-16T11:25:38;16.40;99.90
6054;DHT22;3055;50.886;14.814;2022-09-16T11:28:33;16.50;99.90
6054;DHT22;3055;50.886;14.814;2022-09-16T11:31:09;16.80;99.90
6054;DHT22;3055;50.886;14.814;2022-09-16T11:33:44;17.20;99.90
6054;DHT22;3055;50.886;14.814;2022-09-16T11:36:22;17.40;99.90
6054;DHT22;3055;50.886;14.814;2022-09-16T11:39:10;17.50;99.90
6054;DHT22;3055;50.886;14.814;2022-09-16T11:41:42;17.40;87.20
6054;DHT22;3055;50.886;14.814;2022-09-16T11:44:23;17.50;53.90
6054;DHT22;3055;50.886;14.814;2022-09-16T11:47:00;17.60;47.20
6054;DHT22;3055;50.886;14.814;2022-09-16T11:49:44;18.00;49.50
6054;DHT22;3055;50.886;14.814;2022-09-16T11:52:24;18.40;19.80
6054;DHT22;3055;50.886;14.814;2022-09-16T11:55:06;18.60;1.00
6054;DHT22;3055;50.886;14.814;2022-09-16T11:57:43;18.90;12.70
6054;DHT22;3055;50.886;14.814;2022-09-16T12:00:14;19.00;10.90
6054;DHT22;3055;50.886;14.814;2022-09-16T12:02:45;18.70;3.50
6054;DHT22;3055;50.886;14.814;2022-09-16T12:05:18;18.20;28.30
6054;DHT22;3055;50.886;14.814;2022-09-16T12:07:51;17.80;11.80
6054;DHT22;3055;50.886;14.814;2022-09-16T12:10:23;17.40;29.10
6054;DHT22;3055;50.886;14.814;2022-09-16T12:12:54;16.90;72.40
6054;DHT22;3055;50.886;14.814;2022-09-16T12:15:24;16.60;99.90
6054;DHT22;3055;50.886;14.814;2022-09-16T12:17:55;16.40;99.90
6054;DHT22;3055;50.886;14.814;2022-09-16T12:20:26;16.30;99.90
6054;DHT22;3055;50.886;14.814;2022-09-16T12:23:00;16.30;99.90
6054;DHT22;3055;50.886;14.814;2022-09-16T12:25:33;16.50;99.90
6054;DHT22;3055;50.886;14.814;2022-09-16T12:28:09;16.60;99.90
6054;DHT22;3055;50.886;14.814;2022-09-16T12:30:41;16.50;99.90
6054;DHT22;3055;50.886;14.814;2022-09-16T12:33:15;16.40;99.90
6054;DHT22;3055;50.886;14.814;2022-09-16T12:35:50;16.10;99.90
6054;DHT22;3055;50.886;14.814;2022-09-16T12:38:21;16.00;99.90
6054;DHT22;3055;50.886;14.814;2022-09-16T12:41:02;16.40;99.90
6054;DHT22;3055;50.886;14.814;2022-09-16T12:44:00;16.90;99.90
6054;DHT22;3055;50.886;14.814;2022-09-16T12:49:53;17.40;59.60
6054;DHT22;3055;50.886;14.814;2022-09-16T12:52:29;17.80;52.20
6054;DHT22;3055;50.886;14.814;2022-09-16T12:55:40;18.50;63.40
6054;DHT22;3055;50.886;14.814;2022-09-16T12:58:28;19.00;1.00
6054;DHT22;3055;50.886;14.814;2022-09-16T13:01:04;19.00;1.00
6054;DHT22;3055;50.886;14.814;2022-09-16T13:03:38;19.20;1.00
6054;DHT22;3055;50.886;14.814;2022-09-16T13:06:17;19.40;1.00
6054;DHT22;3055;50.886;14.814;2022-09-16T13:08:46;19.20;1.00
6054;DHT22;3055;50.886;14.814;2022-09-16T13:11:19;19.00;1.00
6054;DHT22;3055;50.886;14.814;2022-09-16T13:13:48;18.40;1.00
6054;DHT22;3055;50.886;14.814;2022-09-16T13:16:27;18.20;1.00
6054;DHT22;3055;50.886;14.814;2022-09-16T13:19:21;18.00;1.00
6054;DHT22;3055;50.886;14.814;2022-09-16T13:21:53;17.60;1.00
6054;DHT22;3055;50.886;14.814;2022-09-16T13:24:24;17.20;1.00
6054;DHT22;3055;50.886;14.814;2022-09-16T13:26:54;16.90;1.00
6054;DHT22;3055;50.886;14.814;2022-09-16T13:29:40;16.30;2.60
6054;DHT22;3055;50.886;14.814;2022-09-16T13:32:27;15.90;99.90
6054;DHT22;3055;50.886;14.814;2022-09-16T13:35:05;15.60;99.90
6054;DHT22;3055;50.886;14.814;2022-09-16T13:37:47;15.70;44.20
6054;DHT22;3055;50.886;14.814;2022-09-16T13:40:20;16.70;1.00
6054;DHT22;3055;50.886;14.814;2022-09-16T13:42:49;17.40;99.90
6054;DHT22;3055;50.886;14.814;2022-09-16T13:45:32;18.10;99.90
6054;DHT22;3055;50.886;14.814;2022-09-16T13:48:10;18.80;91.60
6054;DHT22;3055;50.886;14.814;2022-09-16T13:50:41;19.40;63.00
6054;DHT22;3055;50.886;14.814;2022-09-16T13:53:09;20.10;18.80
6054;DHT22;3055;50.886;14.814;2022-09-16T13:55:39;20.40;1.00
6054;DHT22;3055;50.886;14.814;2022-09-16T13:58:13;21.00;1.00
6054;DHT22;3055;50.886;14.814;2022-09-16T14:00:56;21.10;1.00
6054;DHT22;3055;50.886;14.814;2022-09-16T14:03:43;21.00;1.00
6054;DHT22;3055;50.886;14.814;2022-09-16T14:06:32;21.20;1.00
6054;DHT22;3055;50.886;14.814;2022-09-16T14:09:12;21.10;1.00
6054;DHT22;3055;50.886;14.814;2022-09-16T14:11:45;21.40;1.00
6054;DHT22;3055;50.886;14.814;2022-09-16T14:14:16;22.00;1.00
6054;DHT22;3055;50.886;14.814;2022-09-16T14:16:45;22.10;1.00
6054;DHT22;3055;50.886;14.814;2022-09-16T14:19:21;22.50;1.00
6054;DHT22;3055;50.886;14.814;2022-09-16T14:22:00;22.60;1.00
6054;DHT22;3055;50.886;14.814;2022-09-16T14:24:33;22.90;1.00
6054;DHT22;3055;50.886;14.814;2022-09-16T14:27:00;22.30;1.00
6054;DHT22;3055;50.886;14.814;2022-09-16T14:29:28;21.50;1.00
6054;DHT22;3055;50.886;14.814;2022-09-16T14:31:56;21.30;1.00
6054;DHT22;3055;50.886;14.814;2022-09-16T14:34:26;21.20;1.00
6054;DHT22;3055;50.886;14.814;2022-09-16T14:36:54;21.90;1.00
6054;DHT22;3055;50.886;14.814;2022-09-16T14:39:23;22.40;1.00
6054;DHT22;3055;50.886;14.814;2022-09-16T14:41:53;22.70;1.00
6054;DHT22;3055;50.886;14.814;2022-09-16T14:44:26;23.00;1.00
6054;DHT22;3055;50.886;14.814;2022-09-16T14:47:00;23.10;1.00
6054;DHT22;3055;50.886;14.814;2022-09-16T14:49:28;23.40;1.00
6054;DHT22;3055;50.886;14.814;2022-09-16T14:51:57;23.30;1.00
6054;DHT22;3055;50.886;14.814;2022-09-16T14:54:26;23.10;1.00
6054;DHT22;3055;50.886;14.814;2022-09-16T14:56:55;23.30;1.00
6054;DHT22;3055;50.886;14.814;2022-09-16T14:59:25;23.40;1.00
6054;DHT22;3055;50.886;14.814;2022-09-16T15:01:55;23.20;1.00
6054;DHT22;3055;50.886;14.814;2022-09-16T15:04:28;22.60;1.00
6054;DHT22;3055;50.886;14.814;2022-09-16T15:07:03;21.70;1.00
6054;DHT22;3055;50.886;14.814;2022-09-16T15:09:44;20.70;1.00
6054;DHT22;3055;50.886;14.814;2022-09-16T15:12:18;20.30;1.00
6054;DHT22;3055;50.886;14.814;2022-09-16T15:14:47;20.30;1.00
6054;DHT22;3055;50.886;14.814;2022-09-16T15:17:18;19.80;1.00
6054;DHT22;3055;50.886;14.814;2022-09-16T15:19:50;19.30;1.00
6054;DHT22;3055;50.886;14.814;2022-09-16T15:22:20;18.70;1.00
6054;DHT22;3055;50.886;14.814;2022-09-16T15:24:50;19.00;1.00
6054;DHT22;3055;50.886;14.814;2022-09-16T15:27:26;19.80;1.00
6054;DHT22;3055;50.886;14.814;2022-09-16T15:29:55;20.50;1.00
6054;DHT22;3055;50.886;14.814;2022-09-16T15:32:25;21.00;1.00
6054;DHT22;3055;50.886;14.814;2022-09-16T15:35:10;20.50;1.00
6054;DHT22;3055;50.886;14.814;2022-09-16T15:37:37;19.70;1.00
6054;DHT22;3055;50.886;14.814;2022-09-16T15:40:09;19.10;1.00
6054;DHT22;3055;50.886;14.814;2022-09-16T15:42:36;18.60;1.00
6054;DHT22;3055;50.886;14.814;2022-09-16T15:45:13;18.30;1.00
6054;DHT22;3055;50.886;14.814;2022-09-16T15:47:54;17.70;1.00
6054;DHT22;3055;50.886;14.814;2022-09-16T15:50:24;17.40;1.00
6054;DHT22;3055;50.886;14.814;2022-09-16T15:52:56;16.70;1.00
6054;DHT22;3055;50.886;14.814;2022-09-16T15:55:29;16.00;99.90
6054;DHT22;3055;50.886;14.814;2022-09-16T15:58:02;15.50;99.90
6054;DHT22;3055;50.886;14.814;2022-09-16T16:00:53;15.30;99.90
6054;DHT22;3055;50.886;14.814;2022-09-16T16:03:23;15.10;1.00
6054;DHT22;3055;50.886;14.814;2022-09-16T16:05:53;14.80;99.90
6054;DHT22;3055;50.886;14.814;2022-09-16T16:08:44;14.50;1.00
6054;DHT22;3055;50.886;14.814;2022-09-16T16:11:14;14.30;99.90
6054;DHT22;3055;50.886;14.814;2022-09-16T16:13:41;14.10;99.90
6054;DHT22;3055;50.886;14.814;2022-09-16T16:16:09;14.00;93.80
6054;DHT22;3055;50.886;14.814;2022-09-16T16:18:38;13.90;99.90
6054;DHT22;3055;50.886;14.814;2022-09-16T16:21:08;13.80;99.90
6054;DHT22;3055;50.886;14.814;2022-09-16T16:23:36;13.80;99.90
6054;DHT22;3055;50.886;14.814;2022-09-16T16:26:04;13.70;99.90
6054;DHT22;3055;50.886;14.814;2022-09-16T16:28:31;13.80;1.00
6054;DHT22;3055;50.886;14.814;2022-09-16T16:31:09;13.80;99.90
6054;DHT22;3055;50.886;14.814;2022-09-16T16:33:36;13.70;1.00
6054;DHT22;3055;50.886;14.814;2022-09-16T16:36:04;13.70;99.90